Time;durP1;ratioP1;P1;durP2;ratioP2;P2;SDS_P1;SDS_P2;PMS_P1;PMS_P2;Temp;Humidity;BMP_temperature;BMP_pressure;BME280_temperature;BME280_humidity;BME280_pressure;Samples;Min_cycle;Max_cycle;Signal;HPM_P1;HPM_P2
2022/11/25 00:00:23;;;;;;;2.63;1.15;;;18.00;78.10;;;;;;6182248;23;45271;-69
2022/11/25 00:02:52;;;;;;;2.13;0.93;;;18.10;78.40;;;;;;6182545;23;45274;-68
2022/11/25 00:05:18;;;;;;;4.32;1.23;;;18.00;77.90;;;;;;6182066;23;45370;-68
2022/11/25 00:07:45;;;;;;;3.53;1.00;;;18.00;78.00;;;;;;6182269;23;48716;-69
2022/11/25 00:10:12;;;;;;;2.20;0.82;;;18.00;77.90;;;;;;6182489;22;45396;-69
2022/11/25 00:12:39;;;;;;;2.38;1.10;;;18.10;78.10;;;;;;6181566;23;45339;-69
2022/11/25 00:15:06;;;;;;;3.30;0.90;;;18.00;77.80;;;;;;6181936;23;45190;-68
2022/11/25 00:17:33;;;;;;;1.23;0.77;;;18.00;78.20;;;;;;6182468;23;46327;-69
2022/11/25 00:20:04;;;;;;;2.40;1.13;;;18.00;78.20;;;;;;6182457;23;45181;-68
2022/11/25 00:22:31;;;;;;;1.70;0.82;;;18.00;78.00;;;;;;6182859;23;45563;-69
2022/11/25 00:24:58;;;;;;;2.00;1.00;;;18.00;78.00;;;;;;6179999;23;45280;-68
2022/11/25 00:27:25;;;;;;;3.60;1.20;;;18.00;78.10;;;;;;6182014;23;45234;-68
2022/11/25 00:29:52;;;;;;;2.65;0.93;;;18.10;78.20;;;;;;6181687;23;45185;-68
2022/11/25 00:32:19;;;;;;;2.50;0.90;;;18.10;78.30;;;;;;6182599;23;45304;-68
2022/11/25 00:34:46;;;;;;;3.22;0.95;;;18.00;78.30;;;;;;6181750;23;45415;-69
2022/11/25 00:37:14;;;;;;;2.17;1.10;;;18.10;78.40;;;;;;6181787;23;47052;-68
2022/11/25 00:39:41;;;;;;;2.70;1.20;;;18.00;78.30;;;;;;6182342;23;45175;-69
2022/11/25 00:44:53;;;;;;;1.80;0.80;;;18.10;78.30;;;;;;6182193;23;45296;-68
2022/11/25 00:47:21;;;;;;;3.13;1.00;;;18.10;78.40;;;;;;6181637;23;46275;-69
2022/11/25 00:49:50;;;;;;;3.47;1.00;;;18.00;78.40;;;;;;6182465;23;45225;-69
2022/11/25 00:52:21;;;;;;;2.00;1.00;;;18.00;78.40;;;;;;6182329;23;45385;-69
2022/11/25 00:54:49;;;;;;;1.38;1.00;;;18.00;78.40;;;;;;6181665;23;45353;-69
2022/11/25 00:57:18;;;;;;;3.92;0.98;;;18.00;78.60;;;;;;6182249;23;47502;-68
2022/11/25 00:59:45;;;;;;;2.72;1.05;;;18.10;78.40;;;;;;6181832;23;45319;-69
2022/11/25 01:02:14;;;;;;;2.78;0.75;;;18.10;78.40;;;;;;6182568;23;45301;-68
2022/11/25 01:04:41;;;;;;;2.35;1.00;;;18.10;78.50;;;;;;6181898;23;45185;-69
2022/11/25 01:07:08;;;;;;;2.20;1.00;;;18.10;78.40;;;;;;6183206;23;45458;-69
2022/11/25 01:09:37;;;;;;;1.48;0.75;;;18.10;78.50;;;;;;6183581;23;45307;-69
2022/11/25 01:12:04;;;;;;;1.63;0.75;;;18.10;78.50;;;;;;6181924;23;45386;-68
2022/11/25 01:14:33;;;;;;;2.60;1.17;;;18.10;78.30;;;;;;6183182;23;45557;-69
2022/11/25 01:17:00;;;;;;;2.17;1.10;;;18.10;78.10;;;;;;6182666;23;45240;-69
2022/11/25 01:19:28;;;;;;;2.42;1.00;;;18.10;78.00;;;;;;6183499;23;45228;-68
2022/11/25 01:21:54;;;;;;;1.60;0.70;;;18.00;77.80;;;;;;6182918;23;45269;-69
2022/11/25 01:24:22;;;;;;;1.63;0.85;;;18.10;77.80;;;;;;6183765;23;45361;-68
2022/11/25 01:26:50;;;;;;;3.85;1.00;;;18.00;77.80;;;;;;6182340;23;46494;-70
2022/11/25 01:29:19;;;;;;;2.72;0.98;;;18.00;77.60;;;;;;6182580;23;45362;-69
2022/11/25 01:31:47;;;;;;;2.40;0.98;;;18.00;77.70;;;;;;6184599;23;45223;-68
2022/11/25 01:34:15;;;;;;;3.60;0.90;;;18.00;77.70;;;;;;6183866;23;45413;-69
2022/11/25 01:36:42;;;;;;;2.38;1.20;;;18.00;77.60;;;;;;6182859;23;46623;-68
2022/11/25 01:39:15;;;;;;;2.80;1.08;;;18.00;77.60;;;;;;6183963;23;45280;-68
2022/11/25 01:41:42;;;;;;;2.28;0.88;;;18.00;77.70;;;;;;6185137;23;45488;-68
2022/11/25 01:44:14;;;;;;;2.58;0.95;;;18.00;77.50;;;;;;6184574;23;45310;-69
2022/11/25 01:46:59;;;;;;;3.53;1.35;;;18.10;77.70;;;;;;6183639;23;46976;-69
2022/11/25 01:49:31;;;;;;;1.88;0.90;;;18.00;77.70;;;;;;6184408;23;45251;-69
2022/11/25 01:52:03;;;;;;;4.07;0.98;;;18.10;78.10;;;;;;6184555;23;45345;-68
2022/11/25 01:54:33;;;;;;;2.67;0.75;;;18.00;78.30;;;;;;6183840;23;45201;-69
2022/11/25 01:57:04;;;;;;;2.08;0.90;;;18.00;78.10;;;;;;6184213;23;45293;-68
2022/11/25 01:59:40;;;;;;;2.90;0.80;;;18.10;78.40;;;;;;6184884;23;45397;-68
2022/11/25 02:02:08;;;;;;;1.52;0.85;;;18.00;78.20;;;;;;6184706;23;45220;-68
2022/11/25 02:04:38;;;;;;;2.17;0.93;;;18.10;78.40;;;;;;6183787;23;45257;-68
2022/11/25 02:07:10;;;;;;;2.65;0.90;;;18.00;78.20;;;;;;6184038;23;46282;-68
2022/11/25 02:09:39;;;;;;;3.85;1.17;;;18.10;78.20;;;;;;6183329;23;45383;-68
2022/11/25 02:12:07;;;;;;;2.03;0.85;;;18.10;78.10;;;;;;6183068;23;45242;-68
2022/11/25 02:14:35;;;;;;;1.92;0.95;;;18.10;78.30;;;;;;6182433;23;45338;-68
2022/11/25 02:17:03;;;;;;;1.65;1.02;;;18.10;78.10;;;;;;6182362;23;46233;-70
2022/11/25 02:19:43;;;;;;;1.58;0.60;;;18.10;78.10;;;;;;6183746;23;45281;-68
2022/11/25 02:22:19;;;;;;;1.77;0.88;;;18.10;78.30;;;;;;6184713;23;45468;-68
2022/11/25 02:24:50;;;;;;;3.72;1.00;;;18.10;78.40;;;;;;6183727;23;45605;-68
2022/11/25 02:27:19;;;;;;;2.38;0.90;;;18.10;78.20;;;;;;6184440;23;46593;-69
2022/11/25 02:29:46;;;;;;;1.85;0.90;;;18.10;78.20;;;;;;6184470;23;45292;-68
2022/11/25 02:32:13;;;;;;;3.15;0.90;;;18.10;78.30;;;;;;6184033;23;45260;-69
2022/11/25 02:34:47;;;;;;;2.03;1.00;;;18.10;78.20;;;;;;6183119;23;45184;-69
2022/11/25 02:37:14;;;;;;;2.55;0.85;;;18.10;78.20;;;;;;6183284;23;46358;-68
2022/11/25 02:39:41;;;;;;;3.45;1.13;;;18.10;78.10;;;;;;6183774;23;45284;-69
2022/11/25 02:42:08;;;;;;;1.65;0.75;;;18.10;78.00;;;;;;6184332;23;45206;-69
2022/11/25 02:44:36;;;;;;;2.65;0.80;;;18.10;78.00;;;;;;6183551;23;45289;-68
2022/11/25 02:47:03;;;;;;;3.72;1.05;;;18.00;77.90;;;;;;6184322;23;45283;-68
2022/11/25 02:49:30;;;;;;;2.35;0.88;;;18.10;77.70;;;;;;6183832;23;45253;-68
2022/11/25 02:51:57;;;;;;;2.17;0.88;;;18.00;77.50;;;;;;6184753;23;45397;-68
2022/11/25 02:54:24;;;;;;;1.38;0.73;;;18.10;77.80;;;;;;6183966;23;45257;-69
2022/11/25 02:56:50;;;;;;;1.38;0.90;;;18.10;77.60;;;;;;6183817;23;46347;-69
2022/11/25 02:59:17;;;;;;;2.58;1.08;;;18.00;77.50;;;;;;6184599;23;45297;-68
2022/11/25 03:01:45;;;;;;;3.40;0.80;;;18.00;77.60;;;;;;6184549;23;45213;-68
2022/11/25 03:04:12;;;;;;;1.70;0.90;;;18.00;77.60;;;;;;6185067;23;45549;-68
2022/11/25 03:06:39;;;;;;;2.25;0.95;;;18.00;77.80;;;;;;6183109;23;46379;-69
2022/11/25 03:09:06;;;;;;;1.10;0.80;;;18.00;77.90;;;;;;6183733;23;45325;-69
2022/11/25 03:14:19;;;;;;;2.10;0.90;;;18.10;78.00;;;;;;6184100;23;45290;-68
2022/11/25 03:16:47;;;;;;;2.35;0.80;;;18.10;77.70;;;;;;6182950;23;47099;-69
2022/11/25 03:19:14;;;;;;;3.85;1.20;;;18.10;77.70;;;;;;6184107;23;45281;-69
2022/11/25 03:21:40;;;;;;;1.80;0.90;;;18.10;77.80;;;;;;6184577;23;45353;-69
2022/11/25 03:24:07;;;;;;;3.72;1.00;;;18.10;77.80;;;;;;6183226;23;45443;-69
2022/11/25 03:26:34;;;;;;;2.03;0.80;;;18.10;77.80;;;;;;6181995;23;46573;-68
2022/11/25 03:29:01;;;;;;;1.60;0.80;;;18.10;77.70;;;;;;6182808;23;45496;-68
2022/11/25 03:31:28;;;;;;;2.03;0.88;;;18.10;77.70;;;;;;6183516;23;45289;-68
2022/11/25 03:33:56;;;;;;;2.25;0.98;;;18.00;77.40;;;;;;6183788;23;45267;-68
2022/11/25 03:36:23;;;;;;;2.50;0.80;;;18.00;77.50;;;;;;6182702;23;45351;-68
2022/11/25 03:38:50;;;;;;;2.17;0.73;;;18.00;77.30;;;;;;6183641;23;45442;-68
2022/11/25 03:41:17;;;;;;;2.42;0.70;;;18.10;77.40;;;;;;6183861;23;45333;-68
2022/11/25 03:43:44;;;;;;;2.05;0.68;;;18.10;77.20;;;;;;6184220;23;45241;-69
2022/11/25 03:46:11;;;;;;;2.33;1.00;;;18.00;77.20;;;;;;6182342;23;46465;-68
2022/11/25 03:49:09;;;;;;;2.72;0.90;;;18.10;77.40;;;;;;6183650;23;45245;-70
2022/11/25 03:51:36;;;;;;;2.55;0.98;;;18.00;77.60;;;;;;6184562;23;45236;-68
2022/11/25 03:54:03;;;;;;;1.73;0.60;;;18.00;77.70;;;;;;6183809;23;45149;-68
2022/11/25 03:56:30;;;;;;;1.88;0.80;;;18.10;77.70;;;;;;6182691;23;46575;-68
2022/11/25 03:58:58;;;;;;;1.55;0.52;;;18.10;77.70;;;;;;6183837;23;45251;-69
2022/11/25 04:01:25;;;;;;;1.95;0.63;;;18.10;77.70;;;;;;6184303;23;45286;-69
2022/11/25 04:03:51;;;;;;;2.38;1.10;;;18.10;77.80;;;;;;6183023;23;45355;-68
2022/11/25 04:06:20;;;;;;;4.00;1.23;;;18.10;77.60;;;;;;6182279;23;46424;-68
2022/11/25 04:08:47;;;;;;;1.52;0.77;;;18.10;77.70;;;;;;6183590;23;45337;-69
2022/11/25 04:11:14;;;;;;;2.22;0.85;;;18.10;77.90;;;;;;6182557;23;45225;-68
2022/11/25 04:13:40;;;;;;;1.88;0.70;;;18.10;77.80;;;;;;6184249;23;45508;-69
2022/11/25 04:16:07;;;;;;;2.17;0.95;;;18.10;77.70;;;;;;6183231;23;45553;-69
2022/11/25 04:18:33;;;;;;;3.10;0.65;;;18.10;77.70;;;;;;6183966;23;45371;-68
2022/11/25 04:21:01;;;;;;;2.80;0.95;;;18.10;77.60;;;;;;6183817;23;45271;-69
2022/11/25 04:23:29;;;;;;;1.80;0.80;;;18.10;77.50;;;;;;6184301;23;45378;-69
2022/11/25 04:25:56;;;;;;;2.25;0.80;;;18.00;77.30;;;;;;6182651;23;47285;-69
2022/11/25 04:28:23;;;;;;;1.55;0.60;;;18.00;77.40;;;;;;6183441;23;46369;-69
2022/11/25 04:30:50;;;;;;;2.33;0.70;;;18.10;77.40;;;;;;6183964;23;45302;-68
2022/11/25 04:33:16;;;;;;;2.90;1.00;;;18.10;77.30;;;;;;6183931;23;45186;-68
2022/11/25 04:35:43;;;;;;;2.05;0.77;;;18.00;77.00;;;;;;6182827;23;47140;-68
2022/11/25 04:38:10;;;;;;;1.45;0.70;;;18.00;77.10;;;;;;6183702;23;45160;-68
2022/11/25 04:40:38;;;;;;;1.85;0.63;;;18.10;77.00;;;;;;6183645;23;45223;-69
2022/11/25 04:43:05;;;;;;;1.65;0.77;;;18.00;77.10;;;;;;6183203;23;45474;-68
2022/11/25 04:45:32;;;;;;;2.15;0.70;;;18.10;77.40;;;;;;6181995;23;47332;-69
2022/11/25 04:47:58;;;;;;;3.55;0.80;;;18.10;77.50;;;;;;6182998;23;46063;-68
2022/11/25 04:50:25;;;;;;;2.80;1.10;;;18.10;77.70;;;;;;6182367;23;45241;-68
2022/11/25 04:52:52;;;;;;;1.65;0.90;;;18.10;77.70;;;;;;6182020;23;45159;-69
2022/11/25 04:55:19;;;;;;;1.95;0.60;;;18.10;77.70;;;;;;6181928;23;47926;-68
2022/11/25 04:57:47;;;;;;;1.65;0.57;;;18.10;77.70;;;;;;6183208;23;45299;-69
2022/11/25 05:00:14;;;;;;;1.83;0.85;;;18.10;77.80;;;;;;6183570;23;45237;-69
2022/11/25 05:02:40;;;;;;;2.00;0.80;;;18.10;77.60;;;;;;6183652;23;45268;-69
2022/11/25 05:05:08;;;;;;;1.55;0.70;;;18.10;77.70;;;;;;6183249;23;46282;-69
2022/11/25 05:07:37;;;;;;;1.48;1.02;;;18.10;77.60;;;;;;6180769;23;45427;-70
2022/11/25 05:10:05;;;;;;;2.67;0.93;;;18.10;77.70;;;;;;6180371;22;45165;-69
2022/11/25 05:12:32;;;;;;;2.28;0.70;;;18.10;77.80;;;;;;6182559;23;45310;-69
2022/11/25 05:15:00;;;;;;;5.43;0.90;;;18.10;77.70;;;;;;6182589;23;45296;-69
2022/11/25 05:17:28;;;;;;;2.40;0.90;;;18.10;77.70;;;;;;6183168;23;45381;-69
2022/11/25 05:19:56;;;;;;;2.47;0.80;;;18.10;77.50;;;;;;6182235;23;45332;-69
2022/11/25 05:22:24;;;;;;;2.10;0.80;;;18.10;77.40;;;;;;6182781;23;45371;-70
2022/11/25 05:24:51;;;;;;;1.58;0.70;;;18.10;77.40;;;;;;6181039;23;47207;-69
2022/11/25 05:27:19;;;;;;;2.47;0.80;;;18.10;77.40;;;;;;6182443;23;45264;-69
2022/11/25 05:29:46;;;;;;;1.52;0.90;;;18.10;77.10;;;;;;6183501;23;45158;-69
2022/11/25 05:32:14;;;;;;;1.20;0.70;;;18.10;77.20;;;;;;6182508;23;45332;-69
2022/11/25 05:34:42;;;;;;;1.70;0.90;;;18.10;77.10;;;;;;6182250;23;45703;-69
2022/11/25 05:37:09;;;;;;;3.08;0.80;;;18.10;77.00;;;;;;6180928;23;45418;-69
2022/11/25 05:39:36;;;;;;;1.88;0.75;;;18.10;77.00;;;;;;6181362;23;45314;-69
2022/11/25 05:42:03;;;;;;;2.42;0.77;;;18.10;77.10;;;;;;6181151;23;45256;-69
2022/11/25 05:44:30;;;;;;;2.53;0.95;;;18.10;77.00;;;;;;6182742;23;46416;-69
2022/11/25 05:46:57;;;;;;;1.33;0.63;;;18.10;77.30;;;;;;6180970;23;45456;-69
2022/11/25 05:49:25;;;;;;;3.05;0.80;;;18.10;77.40;;;;;;6180756;23;45494;-69
2022/11/25 05:51:52;;;;;;;1.85;1.02;;;18.10;77.50;;;;;;6185004;23;45450;-69
2022/11/25 05:54:31;;;;;;;1.17;0.68;;;18.10;77.70;;;;;;6182927;23;47969;-69
2022/11/25 05:56:57;;;;;;;2.03;0.70;;;18.10;77.70;;;;;;6183898;23;45282;-69
2022/11/25 05:59:24;;;;;;;2.17;0.70;;;18.10;77.60;;;;;;6183540;23;45149;-69
2022/11/25 06:01:52;;;;;;;2.40;0.73;;;18.10;77.70;;;;;;6183924;23;45213;-69
2022/11/25 06:04:19;;;;;;;1.67;0.93;;;18.10;77.70;;;;;;6183531;23;47201;-69
2022/11/25 06:06:47;;;;;;;3.92;0.88;;;18.10;77.70;;;;;;6181514;23;45256;-69
2022/11/25 06:09:14;;;;;;;2.67;0.80;;;18.10;77.70;;;;;;6183225;22;45277;-69
2022/11/25 06:11:41;;;;;;;2.15;0.75;;;18.10;77.70;;;;;;6182333;23;45376;-69
2022/11/25 06:14:08;;;;;;;3.05;0.60;;;18.10;77.60;;;;;;6183460;23;45366;-69
2022/11/25 06:16:35;;;;;;;1.55;0.82;;;18.10;77.50;;;;;;6181906;23;45341;-70
2022/11/25 06:19:04;;;;;;;3.92;0.90;;;18.10;77.30;;;;;;6181878;23;45398;-71
2022/11/25 06:21:31;;;;;;;1.58;0.80;;;18.10;76.60;;;;;;6183861;23;45519;-69
2022/11/25 06:23:59;;;;;;;2.13;0.80;;;18.10;76.60;;;;;;6182765;23;47611;-69
2022/11/25 06:26:26;;;;;;;2.97;0.93;;;18.10;76.60;;;;;;6180385;23;45435;-70
2022/11/25 06:28:54;;;;;;;2.60;1.02;;;18.10;76.60;;;;;;6181547;23;45440;-69
2022/11/25 06:31:23;;;;;;;3.03;1.00;;;18.10;76.60;;;;;;6182599;23;45464;-69
2022/11/25 06:33:52;;;;;;;1.13;0.63;;;18.00;76.50;;;;;;6181162;23;46292;-70
2022/11/25 06:36:19;;;;;;;2.53;1.05;;;18.10;76.60;;;;;;6180821;23;45423;-68
2022/11/25 06:38:48;;;;;;;2.85;0.95;;;18.10;77.00;;;;;;6181795;23;45220;-69
2022/11/25 06:41:18;;;;;;;2.15;0.82;;;18.10;76.60;;;;;;6182526;23;45327;-70
2022/11/25 06:43:45;;;;;;;2.05;1.00;;;18.10;76.80;;;;;;6182566;23;45231;-69
2022/11/25 06:46:14;;;;;;;1.58;0.80;;;18.00;77.10;;;;;;6182524;23;45262;-70
2022/11/25 06:48:41;;;;;;;1.73;0.98;;;18.10;77.30;;;;;;6183627;23;45503;-68
2022/11/25 06:51:10;;;;;;;1.90;0.65;;;18.00;77.30;;;;;;6183180;23;45321;-69
2022/11/25 06:53:38;;;;;;;2.20;0.98;;;18.00;77.50;;;;;;6181872;23;45413;-69
2022/11/25 06:56:07;;;;;;;5.20;1.00;;;18.10;77.50;;;;;;6182100;23;45258;-69
2022/11/25 06:58:36;;;;;;;1.83;0.80;;;18.10;77.50;;;;;;6182995;23;45269;-69
2022/11/25 07:01:05;;;;;;;2.08;0.85;;;18.00;77.50;;;;;;6183174;23;45423;-69
2022/11/25 07:03:32;;;;;;;2.45;0.90;;;18.00;77.50;;;;;;6181987;23;46240;-69
2022/11/25 07:05:59;;;;;;;3.83;0.98;;;18.00;77.40;;;;;;6181498;23;45366;-69
2022/11/25 07:08:26;;;;;;;2.08;0.98;;;18.00;77.20;;;;;;6182774;23;45241;-70
2022/11/25 07:10:53;;;;;;;2.33;1.10;;;18.00;77.30;;;;;;6181137;22;45532;-69
2022/11/25 07:13:21;;;;;;;2.08;0.80;;;18.10;77.20;;;;;;6182689;23;47057;-69
2022/11/25 07:15:49;;;;;;;2.53;0.90;;;18.10;77.30;;;;;;6182146;23;45416;-69
2022/11/25 07:18:16;;;;;;;2.47;0.90;;;18.00;77.50;;;;;;6182602;23;45288;-69
2022/11/25 07:20:43;;;;;;;2.53;0.90;;;18.00;77.10;;;;;;6183424;23;45166;-69
2022/11/25 07:23:09;;;;;;;3.60;0.82;;;18.00;76.80;;;;;;6182165;23;46485;-69
2022/11/25 07:25:36;;;;;;;2.13;0.93;;;18.00;77.20;;;;;;6181967;23;45259;-70
2022/11/25 07:28:03;;;;;;;1.20;0.73;;;18.00;76.90;;;;;;6182522;23;45428;-70
2022/11/25 07:30:30;;;;;;;1.83;0.88;;;18.00;76.60;;;;;;6182924;23;45305;-69
2022/11/25 07:32:58;;;;;;;1.67;0.95;;;18.00;76.50;;;;;;6183050;23;47621;-69
2022/11/25 07:35:25;;;;;;;2.00;0.80;;;18.00;76.70;;;;;;6181488;23;45320;-70
2022/11/25 07:37:53;;;;;;;1.85;0.77;;;18.00;76.50;;;;;;6182377;23;45335;-69
2022/11/25 07:40:19;;;;;;;4.85;1.25;;;18.00;76.50;;;;;;6182390;23;45351;-70
2022/11/25 07:42:46;;;;;;;2.28;1.27;;;18.00;76.50;;;;;;6182777;23;46218;-69
2022/11/25 07:45:13;;;;;;;2.80;1.13;;;18.00;76.60;;;;;;6182114;23;45264;-69
2022/11/25 07:47:40;;;;;;;3.58;1.00;;;18.00;76.50;;;;;;6182643;23;45319;-70
2022/11/25 07:50:09;;;;;;;2.65;1.15;;;18.00;76.50;;;;;;6182705;23;45334;-69
2022/11/25 07:52:38;;;;;;;1.60;0.80;;;17.90;76.40;;;;;;6180265;23;46543;-70
2022/11/25 07:55:06;;;;;;;1.92;0.90;;;17.90;76.40;;;;;;6182227;23;45574;-69
2022/11/25 07:57:32;;;;;;;4.20;1.23;;;17.90;76.50;;;;;;6182219;23;45252;-69
2022/11/25 07:59:59;;;;;;;3.53;1.00;;;17.90;76.40;;;;;;6182023;23;45377;-69
2022/11/25 08:02:26;;;;;;;3.33;1.30;;;17.90;76.40;;;;;;6182725;23;47686;-69
2022/11/25 08:04:53;;;;;;;2.08;1.10;;;17.90;76.40;;;;;;6181906;23;45853;-69
2022/11/25 08:07:21;;;;;;;1.98;0.80;;;17.90;76.40;;;;;;6180993;23;45238;-69
2022/11/25 08:09:47;;;;;;;1.50;1.08;;;17.90;76.10;;;;;;6182003;23;45455;-69
2022/11/25 08:12:14;;;;;;;3.30;1.10;;;17.90;75.20;;;;;;6182285;23;46472;-70
2022/11/25 08:14:41;;;;;;;2.22;0.77;;;17.90;74.60;;;;;;6182238;23;45229;-69
2022/11/25 08:17:08;;;;;;;2.65;0.98;;;17.80;73.10;;;;;;6181429;23;45397;-69
2022/11/25 08:19:35;;;;;;;1.58;0.90;;;17.80;73.60;;;;;;6182741;23;45428;-69
2022/11/25 08:22:02;;;;;;;10.38;2.03;;;17.80;72.80;;;;;;6180518;23;45378;-74
2022/11/25 08:24:30;;;;;;;9.63;1.75;;;17.80;73.30;;;;;;6182327;23;45336;-68
2022/11/25 08:27:00;;;;;;;5.72;1.60;;;17.90;74.30;;;;;;6182134;23;45518;-68
2022/11/25 08:29:27;;;;;;;5.07;1.40;;;17.90;74.90;;;;;;6182761;23;45415;-68
2022/11/25 08:31:53;;;;;;;3.50;1.05;;;17.90;75.10;;;;;;6182587;23;47665;-69
2022/11/25 08:34:23;;;;;;;3.22;1.30;;;17.90;75.10;;;;;;6182085;23;45459;-69
2022/11/25 08:36:50;;;;;;;3.83;1.38;;;17.90;75.10;;;;;;6181997;23;45285;-68
2022/11/25 08:39:18;;;;;;;2.08;1.02;;;17.90;74.70;;;;;;6182096;23;45504;-68
2022/11/25 08:41:46;;;;;;;2.38;1.17;;;17.90;75.00;;;;;;6182129;23;47234;-69
2022/11/25 08:44:13;;;;;;;2.72;1.13;;;18.00;75.10;;;;;;6182851;23;45329;-68
2022/11/25 08:46:40;;;;;;;5.25;1.20;;;18.00;75.20;;;;;;6181524;23;45411;-68
2022/11/25 08:49:08;;;;;;;4.60;1.02;;;18.00;75.30;;;;;;6182802;23;45208;-68
2022/11/25 08:51:37;;;;;;;2.92;1.13;;;18.00;75.30;;;;;;6181682;23;48171;-68
2022/11/25 08:54:04;;;;;;;1.67;1.00;;;18.00;75.20;;;;;;6183096;23;45901;-68
2022/11/25 08:56:32;;;;;;;1.75;0.80;;;18.00;75.30;;;;;;6182692;23;45436;-68
2022/11/25 08:59:00;;;;;;;2.13;0.88;;;18.00;75.20;;;;;;6183053;23;45282;-68
2022/11/25 09:01:27;;;;;;;2.85;1.23;;;18.00;75.40;;;;;;6181890;23;48220;-66
2022/11/25 09:03:55;;;;;;;2.42;0.88;;;18.00;75.40;;;;;;6180591;23;45302;-69
2022/11/25 09:06:23;;;;;;;1.63;0.80;;;18.00;75.50;;;;;;6181777;23;45420;-69
2022/11/25 09:08:50;;;;;;;3.13;0.98;;;18.00;75.60;;;;;;6181295;23;45458;-68
2022/11/25 09:11:17;;;;;;;3.90;1.20;;;18.00;75.60;;;;;;6181844;23;46555;-69
2022/11/25 09:13:44;;;;;;;1.13;0.65;;;18.00;75.90;;;;;;6181733;23;45337;-69
2022/11/25 09:16:13;;;;;;;2.05;0.70;;;18.00;76.00;;;;;;6180249;23;45345;-68
2022/11/25 09:18:40;;;;;;;3.17;1.00;;;18.00;76.10;;;;;;6179897;23;45412;-69
2022/11/25 09:21:09;;;;;;;2.03;0.98;;;18.00;76.30;;;;;;6181568;23;46626;-71
2022/11/25 09:23:37;;;;;;;3.47;1.02;;;18.00;76.50;;;;;;6181963;23;45476;-69
2022/11/25 09:26:04;;;;;;;2.35;0.98;;;18.00;76.50;;;;;;6180996;23;45249;-69
2022/11/25 09:28:32;;;;;;;5.30;1.25;;;18.00;76.50;;;;;;6183610;23;45248;-69
2022/11/25 09:30:59;;;;;;;3.13;0.80;;;18.00;76.50;;;;;;6182933;23;48009;-69
2022/11/25 09:33:27;;;;;;;3.08;0.90;;;18.00;76.50;;;;;;6182632;23;45568;-68
2022/11/25 09:35:54;;;;;;;2.80;0.85;;;18.10;76.60;;;;;;6182572;23;45293;-69
2022/11/25 09:38:21;;;;;;;3.28;1.05;;;18.10;76.60;;;;;;6183134;23;45375;-69
2022/11/25 09:40:54;;;;;;;2.53;1.05;;;18.00;76.50;;;;;;6182994;23;46284;-69
2022/11/25 09:46:44;;;;;;;2.83;1.08;;;18.00;76.50;;;;;;6183796;23;45301;-68
2022/11/25 09:49:24;;;;;;;2.88;0.98;;;18.00;76.50;;;;;;6180946;23;45396;-69
2022/11/25 09:52:03;;;;;;;3.03;0.90;;;18.10;76.60;;;;;;6183027;23;47565;-68
2022/11/25 09:54:34;;;;;;;1.90;0.70;;;18.00;76.50;;;;;;6184361;23;45295;-70
2022/11/25 09:57:09;;;;;;;2.67;0.93;;;18.10;76.60;;;;;;6182933;23;45385;-69
2022/11/25 09:59:45;;;;;;;3.63;1.20;;;18.00;76.50;;;;;;6184419;23;45480;-69
2022/11/25 10:02:18;;;;;;;4.15;1.08;;;18.00;76.50;;;;;;6183986;23;46668;-69
2022/11/25 10:04:52;;;;;;;1.27;0.77;;;18.00;76.50;;;;;;6184162;23;45161;-69
2022/11/25 10:07:25;;;;;;;2.00;1.10;;;18.00;76.50;;;;;;6183412;23;45419;-69
2022/11/25 10:09:52;;;;;;;1.63;0.70;;;18.00;76.50;;;;;;6183737;23;45543;-69
2022/11/25 10:12:26;;;;;;;3.45;1.10;;;18.10;76.60;;;;;;6183822;23;46366;-69
2022/11/25 10:14:59;;;;;;;2.03;0.98;;;18.00;76.50;;;;;;6184126;23;45331;-68
2022/11/25 10:17:35;;;;;;;3.13;0.70;;;18.10;76.60;;;;;;6183746;23;45264;-69
2022/11/25 10:20:07;;;;;;;2.38;0.80;;;18.00;76.50;;;;;;6183116;23;45467;-69
2022/11/25 10:22:36;;;;;;;1.27;0.70;;;18.10;76.60;;;;;;6183718;23;46501;-69
2022/11/25 10:25:13;;;;;;;2.97;0.70;;;18.00;76.50;;;;;;6183965;23;45237;-69
2022/11/25 10:27:45;;;;;;;1.65;0.90;;;18.10;76.60;;;;;;6184129;23;45247;-69
2022/11/25 10:30:18;;;;;;;1.33;0.52;;;18.10;76.60;;;;;;6184052;23;45359;-69
2022/11/25 10:32:51;;;;;;;1.50;0.60;;;18.10;76.60;;;;;;6184054;23;45264;-69
2022/11/25 10:35:26;;;;;;;2.45;0.70;;;18.20;76.70;;;;;;6183219;23;45501;-69
2022/11/25 10:37:57;;;;;;;1.60;0.82;;;18.20;76.70;;;;;;6183847;23;45276;-68
2022/11/25 10:40:24;;;;;;;1.42;0.70;;;18.20;76.60;;;;;;6184120;23;45366;-69
2022/11/25 10:42:51;;;;;;;1.42;0.73;;;18.10;76.60;;;;;;6183725;23;46404;-68
2022/11/25 10:45:22;;;;;;;1.75;0.73;;;18.10;76.60;;;;;;6183643;23;45340;-68
2022/11/25 10:48:10;;;;;;;0.93;0.57;;;18.10;76.60;;;;;;6184713;23;45354;-68
2022/11/25 10:50:50;;;;;;;2.75;0.80;;;18.20;76.70;;;;;;6184500;23;45447;-68
2022/11/25 10:53:21;;;;;;;2.88;0.80;;;18.20;76.60;;;;;;6182998;23;45314;-70
2022/11/25 10:55:59;;;;;;;1.50;0.70;;;18.10;76.60;;;;;;6183545;23;45263;-68
2022/11/25 10:58:30;;;;;;;2.63;1.00;;;18.10;76.60;;;;;;6184073;23;45315;-68
2022/11/25 11:01:14;;;;;;;1.30;0.60;;;18.10;76.60;;;;;;6184621;23;45288;-68
2022/11/25 11:03:44;;;;;;;1.13;0.60;;;18.10;76.60;;;;;;6183937;23;46646;-68
2022/11/25 11:06:32;;;;;;;1.70;0.70;;;18.10;76.60;;;;;;6182785;23;45560;-68
2022/11/25 11:08:59;;;;;;;1.35;0.90;;;18.10;76.60;;;;;;6183782;23;45256;-68
2022/11/25 11:11:26;;;;;;;0.73;0.52;;;18.10;76.60;;;;;;6183833;23;45371;-68
2022/11/25 11:14:11;;;;;;;2.67;0.88;;;18.20;76.70;;;;;;6183966;23;45339;-68
2022/11/25 11:16:41;;;;;;;3.22;0.55;;;18.20;76.70;;;;;;6182896;23;45260;-68
2022/11/25 11:19:21;;;;;;;1.55;0.50;;;18.10;76.60;;;;;;6183798;23;45251;-68
2022/11/25 11:21:50;;;;;;;2.13;0.57;;;18.10;76.60;;;;;;6183854;23;45241;-68
2022/11/25 11:24:26;;;;;;;1.13;0.65;;;18.10;76.60;;;;;;6183912;23;45507;-68
2022/11/25 11:27:03;;;;;;;1.63;0.70;;;18.10;76.60;;;;;;6183088;23;45217;-68
2022/11/25 11:29:30;;;;;;;1.25;0.65;;;18.10;76.60;;;;;;6184057;23;45220;-68
2022/11/25 11:32:00;;;;;;;1.40;0.63;;;18.10;76.60;;;;;;6183969;23;45562;-68
2022/11/25 11:34:48;;;;;;;1.95;0.80;;;18.20;76.60;;;;;;6183517;23;45378;-68
2022/11/25 11:37:28;;;;;;;2.75;0.77;;;18.10;76.60;;;;;;6181293;23;45217;-69
2022/11/25 11:40:03;;;;;;;2.33;0.50;;;18.20;76.60;;;;;;6179149;23;45304;-68
2022/11/25 11:42:41;;;;;;;2.22;0.70;;;18.20;76.60;;;;;;6181089;23;45335;-68
2022/11/25 11:45:23;;;;;;;1.08;0.52;;;18.20;76.70;;;;;;6181842;23;47044;-68
2022/11/25 11:48:03;;;;;;;1.10;0.60;;;18.20;76.70;;;;;;6182189;23;45286;-68
2022/11/25 11:50:33;;;;;;;1.20;0.77;;;18.10;76.60;;;;;;6182692;23;45269;-69
2022/11/25 11:53:11;;;;;;;2.15;0.68;;;18.20;76.70;;;;;;6182936;23;45185;-68
2022/11/25 11:55:48;;;;;;;1.50;0.60;;;18.20;76.60;;;;;;6179428;23;46228;-68
2022/11/25 11:58:25;;;;;;;1.75;0.70;;;18.20;76.70;;;;;;6182716;23;45241;-69
2022/11/25 12:01:05;;;;;;;1.10;0.30;;;18.10;76.60;;;;;;6183276;23;45396;-68
2022/11/25 12:03:38;;;;;;;2.75;0.70;;;18.10;76.60;;;;;;6182613;23;45372;-69
2022/11/25 12:06:06;;;;;;;1.85;0.70;;;18.10;76.60;;;;;;6181842;23;45511;-68
2022/11/25 12:08:44;;;;;;;1.90;0.77;;;18.20;76.60;;;;;;6181617;23;45204;-68
2022/11/25 12:11:16;;;;;;;2.33;0.70;;;18.20;76.60;;;;;;6182603;23;45320;-68
2022/11/25 12:13:48;;;;;;;2.38;0.60;;;18.10;76.60;;;;;;6180535;23;45299;-69
2022/11/25 12:16:19;;;;;;;1.33;0.60;;;18.10;76.60;;;;;;6180383;23;45715;-68
2022/11/25 12:18:52;;;;;;;1.17;0.57;;;18.10;76.60;;;;;;6182996;23;45401;-68
2022/11/25 12:21:35;;;;;;;3.92;0.80;;;18.10;76.60;;;;;;6182476;23;45369;-68
2022/11/25 12:24:11;;;;;;;2.30;0.85;;;18.10;76.60;;;;;;6182996;23;45379;-68
2022/11/25 12:26:45;;;;;;;2.50;0.88;;;18.10;76.60;;;;;;6179830;23;46466;-68
2022/11/25 12:29:19;;;;;;;1.73;0.65;;;18.10;76.60;;;;;;6181480;23;45313;-68
2022/11/25 12:31:51;;;;;;;1.30;0.57;;;18.10;76.60;;;;;;6177848;23;45228;-68
2022/11/25 12:34:27;;;;;;;2.22;0.82;;;18.20;76.70;;;;;;6183732;23;45387;-68
2022/11/25 12:37:02;;;;;;;0.85;0.60;;;18.20;76.60;;;;;;6182454;23;46459;-69
2022/11/25 12:39:39;;;;;;;1.50;0.43;;;18.20;76.60;;;;;;6183301;23;45319;-68
2022/11/25 12:42:16;;;;;;;1.08;0.50;;;18.20;76.70;;;;;;6183043;23;45364;-68
2022/11/25 12:44:53;;;;;;;0.70;0.52;;;18.20;76.70;;;;;;6182934;23;45207;-68
2022/11/25 12:47:21;;;;;;;1.50;0.70;;;18.20;76.60;;;;;;6182868;23;46675;-68
2022/11/25 12:49:51;;;;;;;1.20;0.50;;;18.20;76.60;;;;;;6181021;23;45303;-68
2022/11/25 12:52:31;;;;;;;1.65;0.70;;;18.20;76.70;;;;;;6180958;23;45313;-68
2022/11/25 12:55:10;;;;;;;2.38;0.75;;;18.20;76.60;;;;;;6183083;23;45294;-68
2022/11/25 12:58:09;;;;;;;1.10;0.50;;;18.20;76.70;;;;;;6178818;23;46261;-68
2022/11/25 13:00:52;;;;;;;0.98;0.50;;;18.20;76.60;;;;;;6180724;23;45359;-69
2022/11/25 13:04:06;;;;;;;1.88;0.75;;;18.20;76.70;;;;;;6181292;23;45328;-68
2022/11/25 13:06:58;;;;;;;2.03;0.70;;;18.10;76.60;;;;;;6180158;23;45416;-68
2022/11/25 13:09:47;;;;;;;2.38;0.90;;;18.20;76.60;;;;;;6181865;23;46291;-68